Time;durP1;ratioP1;P1;durP2;ratioP2;P2;SDS_P1;SDS_P2;PMS_P1;PMS_P2;Temp;Humidity;BMP_temperature;BMP_pressure;BME280_temperature;BME280_humidity;BME280_pressure;Samples;Min_cycle;Max_cycle;Signal;HPM_P1;HPM_P2
2021/05/05 00:00:29;;;;;;;2.55;0.85;;;21.70;52.20;;;;;;5105013;28;20378;-40
2021/05/05 00:02:55;;;;;;;0.93;0.80;;;21.80;51.50;;;;;;5110107;28;20043;-41
2021/05/05 00:05:21;;;;;;;1.88;1.10;;;21.70;51.40;;;;;;5091185;28;20093;-39
2021/05/05 00:07:46;;;;;;;1.20;1.00;;;21.80;51.50;;;;;;5097815;28;20506;-39
2021/05/05 00:10:12;;;;;;;2.08;1.33;;;21.80;51.30;;;;;;5111667;28;20030;-41
2021/05/05 00:12:38;;;;;;;1.20;0.80;;;21.70;51.20;;;;;;5102336;28;20048;-41
2021/05/05 00:15:09;;;;;;;1.02;0.90;;;21.70;52.10;;;;;;5102319;28;20063;-42
2021/05/05 00:17:35;;;;;;;1.40;0.80;;;21.40;52.00;;;;;;5091317;28;20101;-41
2021/05/05 00:20:00;;;;;;;1.23;0.95;;;21.30;52.20;;;;;;5109854;28;20023;-40
2021/05/05 00:22:26;;;;;;;1.00;0.90;;;21.40;52.00;;;;;;5112383;28;20106;-41
2021/05/05 00:24:51;;;;;;;1.52;0.90;;;21.40;52.70;;;;;;5110158;28;20447;-42
2021/05/05 00:27:17;;;;;;;0.80;0.68;;;21.40;51.80;;;;;;5110124;28;20015;-40
2021/05/05 00:29:42;;;;;;;1.23;0.90;;;21.50;51.60;;;;;;5110552;28;20085;-40
2021/05/05 00:32:09;;;;;;;0.90;0.70;;;21.40;51.80;;;;;;5110088;28;20481;-43
2021/05/05 00:34:34;;;;;;;1.67;0.80;;;21.30;52.00;;;;;;5112188;28;20063;-41
2021/05/05 00:37:00;;;;;;;1.13;0.70;;;21.40;51.80;;;;;;5110119;28;20071;-41
2021/05/05 00:39:25;;;;;;;1.02;0.77;;;21.40;51.70;;;;;;5110561;28;20039;-42
2021/05/05 00:41:51;;;;;;;0.90;0.88;;;21.40;51.70;;;;;;5107361;28;20016;-39
2021/05/05 00:44:19;;;;;;;0.75;0.70;;;21.40;51.70;;;;;;5108487;28;20641;-41
2021/05/05 00:46:44;;;;;;;1.52;0.90;;;21.50;52.10;;;;;;5107050;28;20095;-40
2021/05/05 00:49:10;;;;;;;0.60;0.60;;;21.50;51.50;;;;;;5111156;28;20115;-40
2021/05/05 00:51:37;;;;;;;1.00;0.70;;;21.60;51.30;;;;;;5091418;28;20056;-42
2021/05/05 00:54:02;;;;;;;0.50;0.50;;;21.40;51.50;;;;;;5106871;28;20110;-41
2021/05/05 00:56:28;;;;;;;1.08;0.82;;;21.50;51.40;;;;;;5109600;28;20102;-40
2021/05/05 00:58:54;;;;;;;1.40;0.75;;;21.40;51.40;;;;;;5090967;28;20032;-39
2021/05/05 01:01:19;;;;;;;1.13;0.80;;;21.40;51.60;;;;;;5106705;28;20024;-42
2021/05/05 01:03:45;;;;;;;0.85;0.85;;;21.40;51.60;;;;;;5079705;28;20173;-37
2021/05/05 01:06:10;;;;;;;0.77;0.60;;;21.40;51.50;;;;;;5108816;28;20020;-40
2021/05/05 01:08:36;;;;;;;1.00;0.73;;;21.40;51.60;;;;;;5109411;28;20023;-40
2021/05/05 01:11:02;;;;;;;0.65;0.65;;;21.40;51.50;;;;;;5109447;28;20587;-40
2021/05/05 01:13:28;;;;;;;0.68;0.60;;;21.30;51.60;;;;;;5098513;28;20206;-41
2021/05/05 01:15:53;;;;;;;0.95;0.80;;;21.40;51.50;;;;;;5090863;28;20031;-41
2021/05/05 01:18:19;;;;;;;0.98;0.70;;;21.40;51.40;;;;;;5109584;28;20039;-41
2021/05/05 01:20:44;;;;;;;1.05;0.77;;;21.40;51.30;;;;;;5102683;28;20105;-41
2021/05/05 01:23:10;;;;;;;0.65;0.50;;;21.40;51.40;;;;;;5109802;28;20032;-41
2021/05/05 01:25:35;;;;;;;1.13;0.80;;;21.40;51.20;;;;;;5109416;28;20042;-41
2021/05/05 01:28:01;;;;;;;1.38;0.88;;;21.50;51.10;;;;;;5102897;28;20383;-44
2021/05/05 01:30:27;;;;;;;1.23;0.80;;;21.60;50.80;;;;;;5104226;28;20031;-44
2021/05/05 01:32:53;;;;;;;1.00;0.70;;;21.60;50.70;;;;;;5109741;28;20023;-43
2021/05/05 01:35:19;;;;;;;0.80;0.80;;;21.60;50.60;;;;;;5099666;28;20055;-43
2021/05/05 01:37:45;;;;;;;0.70;0.70;;;21.70;50.50;;;;;;5109697;28;20553;-44
2021/05/05 01:40:15;;;;;;;2.45;0.55;;;21.70;50.40;;;;;;5105985;28;20459;-43
2021/05/05 01:42:40;;;;;;;1.65;0.70;;;21.70;50.40;;;;;;5106693;28;20093;-43
2021/05/05 01:45:07;;;;;;;1.25;0.80;;;21.70;50.40;;;;;;5109630;28;20436;-43
2021/05/05 01:47:32;;;;;;;0.60;0.52;;;21.70;50.50;;;;;;5090142;28;20122;-43
2021/05/05 01:49:58;;;;;;;0.60;0.60;;;21.60;50.40;;;;;;5109366;28;20540;-43
2021/05/05 01:52:23;;;;;;;0.80;0.77;;;21.60;50.50;;;;;;5111380;28;20047;-43
2021/05/05 01:54:49;;;;;;;1.05;0.60;;;21.70;50.30;;;;;;5112961;28;20089;-43
2021/05/05 01:57:24;;;;;;;1.17;0.80;;;21.60;50.50;;;;;;5113200;28;20106;-43
2021/05/05 01:59:50;;;;;;;0.65;0.57;;;21.50;50.60;;;;;;5112274;28;20020;-43
2021/05/05 02:02:16;;;;;;;1.10;0.90;;;21.50;51.30;;;;;;5101124;28;20028;-43
2021/05/05 02:04:41;;;;;;;0.80;0.65;;;21.60;50.60;;;;;;5113003;28;20039;-42
2021/05/05 02:07:07;;;;;;;0.93;0.60;;;21.50;50.60;;;;;;5114345;28;20051;-48
2021/05/05 02:09:32;;;;;;;0.82;0.50;;;21.40;50.80;;;;;;5109779;28;20038;-43
2021/05/05 02:11:58;;;;;;;1.10;0.60;;;21.40;50.90;;;;;;5113278;28;20024;-43
2021/05/05 02:14:24;;;;;;;1.00;0.70;;;21.30;50.90;;;;;;5111839;28;20057;-43
2021/05/05 02:16:59;;;;;;;0.82;0.50;;;21.20;51.20;;;;;;5113008;28;20459;-42
2021/05/05 02:19:24;;;;;;;1.17;0.75;;;21.30;51.10;;;;;;5113284;28;20028;-43
2021/05/05 02:21:50;;;;;;;0.80;0.73;;;21.20;51.10;;;;;;5112646;28;20035;-41
2021/05/05 02:24:15;;;;;;;1.02;0.70;;;21.40;51.00;;;;;;5112646;28;20031;-44
2021/05/05 02:26:41;;;;;;;0.73;0.65;;;21.30;50.80;;;;;;5112953;28;20103;-43
2021/05/05 02:29:07;;;;;;;0.63;0.50;;;21.30;50.90;;;;;;5112045;28;20027;-43
2021/05/05 02:31:32;;;;;;;0.75;0.60;;;21.40;50.80;;;;;;5114077;28;20102;-43
2021/05/05 02:33:59;;;;;;;0.93;0.73;;;21.40;50.60;;;;;;5108415;28;20036;-43
2021/05/05 02:36:29;;;;;;;1.08;0.50;;;21.50;50.50;;;;;;5111299;28;20161;-43
2021/05/05 02:38:55;;;;;;;0.75;0.60;;;21.60;50.40;;;;;;5112779;28;20063;-44
2021/05/05 02:41:21;;;;;;;0.60;0.60;;;21.60;50.10;;;;;;5112359;28;20038;-43
2021/05/05 02:43:46;;;;;;;0.82;0.50;;;21.70;50.00;;;;;;5104887;28;20040;-41
2021/05/05 02:46:12;;;;;;;0.98;0.55;;;21.70;50.60;;;;;;5113984;28;20599;-42
2021/05/05 02:48:38;;;;;;;0.85;0.70;;;21.60;50.00;;;;;;5111345;28;20030;-40
2021/05/05 02:51:03;;;;;;;0.85;0.60;;;21.60;50.00;;;;;;5110224;28;20065;-41
2021/05/05 02:53:29;;;;;;;1.08;0.60;;;21.60;50.00;;;;;;5111211;28;20028;-41
2021/05/05 02:55:55;;;;;;;1.00;0.50;;;21.60;50.00;;;;;;5111925;28;20028;-41
2021/05/05 02:58:20;;;;;;;0.98;0.70;;;21.60;49.90;;;;;;5113831;28;20478;-42
2021/05/05 03:00:46;;;;;;;0.70;0.60;;;21.60;50.10;;;;;;5103203;28;20028;-41
2021/05/05 03:03:11;;;;;;;1.02;0.65;;;21.60;50.00;;;;;;5101339;28;20045;-42
2021/05/05 03:05:37;;;;;;;0.85;0.50;;;21.50;50.00;;;;;;5098511;28;20482;-40
2021/05/05 03:08:02;;;;;;;0.93;0.65;;;21.60;50.10;;;;;;5111580;28;20024;-41
2021/05/05 03:10:28;;;;;;;0.60;0.60;;;21.50;50.10;;;;;;5113820;28;20027;-41
2021/05/05 03:12:53;;;;;;;0.98;0.65;;;21.50;50.10;;;;;;5111050;28;20039;-40
2021/05/05 03:15:19;;;;;;;0.60;0.55;;;21.40;50.50;;;;;;5110950;28;20023;-41
2021/05/05 03:17:45;;;;;;;0.80;0.60;;;21.40;50.40;;;;;;5111170;28;20028;-41
2021/05/05 03:20:11;;;;;;;0.73;0.50;;;21.20;50.80;;;;;;5112099;28;20517;-41
2021/05/05 03:22:37;;;;;;;0.68;0.52;;;21.20;50.80;;;;;;5109429;28;20439;-41
2021/05/05 03:25:06;;;;;;;0.47;0.43;;;21.20;50.80;;;;;;5111134;28;20039;-41
2021/05/05 03:27:32;;;;;;;0.68;0.68;;;21.20;50.90;;;;;;5109688;28;20192;-42
2021/05/05 03:29:57;;;;;;;0.75;0.60;;;21.10;51.10;;;;;;5111538;28;20470;-41
2021/05/05 03:32:23;;;;;;;0.52;0.50;;;21.00;51.30;;;;;;5111506;28;20043;-42
2021/05/05 03:34:48;;;;;;;0.70;0.70;;;21.20;50.80;;;;;;5077910;28;20035;-41
2021/05/05 03:37:15;;;;;;;1.05;0.50;;;21.10;50.90;;;;;;5111269;28;20138;-41
2021/05/05 03:39:40;;;;;;;0.70;0.68;;;21.20;51.50;;;;;;5106116;28;20529;-41
2021/05/05 03:42:06;;;;;;;0.60;0.60;;;21.10;51.10;;;;;;5109018;28;20034;-41
2021/05/05 03:44:32;;;;;;;0.63;0.63;;;21.10;51.00;;;;;;5105866;28;20572;-41
2021/05/05 03:46:57;;;;;;;1.98;0.75;;;21.20;50.80;;;;;;5111191;28;20038;-39
2021/05/05 03:49:23;;;;;;;1.10;0.80;;;21.30;50.50;;;;;;5113000;28;20107;-40
2021/05/05 03:51:48;;;;;;;0.95;0.57;;;21.20;50.50;;;;;;5110518;28;20389;-41
2021/05/05 03:54:15;;;;;;;1.02;0.68;;;21.30;50.30;;;;;;5110609;28;20497;-43
2021/05/05 03:56:41;;;;;;;0.70;0.60;;;21.30;50.30;;;;;;5110025;28;20039;-42
2021/05/05 03:59:06;;;;;;;0.55;0.43;;;21.30;50.20;;;;;;5111274;28;20040;-40
2021/05/05 04:01:32;;;;;;;0.55;0.55;;;21.40;50.20;;;;;;5102752;28;20552;-46
2021/05/05 04:03:58;;;;;;;0.60;0.50;;;21.20;50.40;;;;;;5083916;28;20058;-41
2021/05/05 04:06:23;;;;;;;0.70;0.70;;;21.20;50.60;;;;;;5104233;28;20115;-40
2021/05/05 04:08:49;;;;;;;0.70;0.65;;;21.10;50.60;;;;;;5107342;28;20069;-41
2021/05/05 04:11:14;;;;;;;0.50;0.50;;;21.10;50.80;;;;;;5101557;28;20020;-40
2021/05/05 04:13:40;;;;;;;0.60;0.60;;;21.10;50.80;;;;;;5111284;28;20079;-40
2021/05/05 04:16:06;;;;;;;0.80;0.60;;;21.00;50.90;;;;;;5111526;28;20026;-41
2021/05/05 04:18:31;;;;;;;1.05;0.60;;;21.10;50.80;;;;;;5109723;28;20378;-41
2021/05/05 04:20:59;;;;;;;0.90;0.50;;;21.10;50.80;;;;;;5110137;28;20083;-40
2021/05/05 04:23:25;;;;;;;0.32;0.32;;;21.10;50.80;;;;;;5110732;28;20039;-40
2021/05/05 04:25:51;;;;;;;1.05;0.70;;;21.20;50.50;;;;;;5107865;28;20447;-43
2021/05/05 04:28:17;;;;;;;0.50;0.50;;;21.20;50.60;;;;;;5112114;28;20039;-41
2021/05/05 04:30:42;;;;;;;0.70;0.70;;;21.20;50.50;;;;;;5109968;28;20448;-39
2021/05/05 04:33:08;;;;;;;0.50;0.50;;;21.20;50.50;;;;;;5109386;28;20046;-42
2021/05/05 04:35:33;;;;;;;0.65;0.60;;;21.20;51.10;;;;;;5107532;28;20016;-42
2021/05/05 04:37:59;;;;;;;0.40;0.40;;;21.20;50.40;;;;;;5068195;28;20230;-42
2021/05/05 04:40:24;;;;;;;0.60;0.60;;;21.20;50.60;;;;;;5091372;28;20360;-43
2021/05/05 04:42:50;;;;;;;0.43;0.43;;;21.10;50.60;;;;;;5089196;28;20055;-41
2021/05/05 04:45:16;;;;;;;0.80;0.57;;;21.10;50.70;;;;;;5071801;28;20096;-41
2021/05/05 04:47:41;;;;;;;0.68;0.52;;;20.90;51.50;;;;;;5080615;28;20462;-42
2021/05/05 04:50:08;;;;;;;1.02;0.55;;;21.00;50.90;;;;;;5087201;28;20044;-40
2021/05/05 04:52:34;;;;;;;0.60;0.50;;;21.00;50.70;;;;;;5087208;28;20102;-41
2021/05/05 04:54:59;;;;;;;0.60;0.60;;;21.00;50.80;;;;;;5081774;28;20032;-43
2021/05/05 04:57:25;;;;;;;0.82;0.60;;;21.00;54.00;;;;;;5085541;28;20118;-39
2021/05/05 04:59:51;;;;;;;0.55;0.40;;;21.10;54.80;;;;;;5089072;28;20028;-40
2021/05/05 05:02:16;;;;;;;0.65;0.60;;;21.10;53.40;;;;;;5071527;28;20474;-42
2021/05/05 05:04:43;;;;;;;0.77;0.57;;;21.00;53.00;;;;;;5082322;28;20033;-40
2021/05/05 05:07:09;;;;;;;1.50;0.90;;;21.00;52.50;;;;;;5089572;28;20032;-41
2021/05/05 05:09:35;;;;;;;0.57;0.43;;;20.80;52.80;;;;;;5087640;28;20509;-43
2021/05/05 05:12:00;;;;;;;0.85;0.50;;;20.80;53.80;;;;;;5088186;28;20107;-40
2021/05/05 05:14:26;;;;;;;1.63;0.45;;;20.60;53.30;;;;;;5078778;28;20039;-42
2021/05/05 05:16:52;;;;;;;1.42;0.93;;;20.60;53.20;;;;;;5058190;28;20021;-42
2021/05/05 05:19:17;;;;;;;1.70;1.17;;;20.60;53.00;;;;;;5085956;28;20462;-38
2021/05/05 05:21:43;;;;;;;2.30;1.10;;;20.70;52.90;;;;;;5067978;28;20119;-41
2021/05/05 05:24:09;;;;;;;1.10;1.00;;;20.70;52.90;;;;;;5088120;28;20040;-40
2021/05/05 05:26:34;;;;;;;0.93;0.70;;;20.70;52.80;;;;;;5089024;28;20039;-40
2021/05/05 05:29:01;;;;;;;1.00;0.80;;;20.80;52.70;;;;;;5091434;28;20114;-40
2021/05/05 05:31:27;;;;;;;1.75;1.02;;;20.90;52.40;;;;;;5090595;28;20024;-44
2021/05/05 05:33:52;;;;;;;1.20;0.98;;;20.90;51.90;;;;;;5093718;28;20028;-41
2021/05/05 05:36:18;;;;;;;1.00;0.90;;;20.80;52.30;;;;;;5092935;28;20034;-41
2021/05/05 05:38:44;;;;;;;3.15;1.00;;;21.00;52.20;;;;;;5092601;28;20040;-40
2021/05/05 05:41:09;;;;;;;1.23;1.13;;;21.10;52.20;;;;;;5093507;28;20513;-44
2021/05/05 05:43:35;;;;;;;2.17;1.05;;;21.20;52.20;;;;;;5093190;28;20109;-41
2021/05/05 05:46:00;;;;;;;1.00;0.82;;;21.10;51.50;;;;;;5082228;28;20454;-43
2021/05/05 05:48:26;;;;;;;1.92;1.00;;;21.00;52.80;;;;;;5081443;28;20090;-44
2021/05/05 05:50:51;;;;;;;1.27;0.77;;;21.00;52.70;;;;;;5065406;28;20066;-44
2021/05/05 05:53:17;;;;;;;1.15;0.80;;;21.10;52.70;;;;;;5086285;28;20528;-44
2021/05/05 05:55:44;;;;;;;1.02;0.77;;;21.00;52.70;;;;;;5065643;28;20054;-43
2021/05/05 05:58:11;;;;;;;2.63;1.10;;;21.10;52.50;;;;;;5079611;28;20055;-44
2021/05/05 06:00:36;;;;;;;0.90;0.80;;;21.10;52.40;;;;;;5084107;28;20060;-42
2021/05/05 06:03:05;;;;;;;1.65;0.90;;;21.10;52.20;;;;;;5065841;28;20079;-44
2021/05/05 06:05:32;;;;;;;2.95;0.70;;;21.20;51.80;;;;;;5083157;28;20579;-44
2021/05/05 06:07:58;;;;;;;1.33;1.00;;;21.00;52.20;;;;;;5074304;28;20048;-45
2021/05/05 06:10:23;;;;;;;1.15;1.00;;;20.80;52.10;;;;;;5080419;28;20090;-42
2021/05/05 06:12:49;;;;;;;1.40;0.80;;;20.70;52.40;;;;;;5077821;28;20075;-43
2021/05/05 06:15:14;;;;;;;3.28;0.90;;;20.60;52.40;;;;;;5077003;28;20139;-44
2021/05/05 06:17:40;;;;;;;1.20;0.93;;;20.60;52.60;;;;;;5082804;28;20036;-40
2021/05/05 06:20:06;;;;;;;0.95;0.65;;;20.60;52.20;;;;;;5085923;28;20367;-44
2021/05/05 06:22:32;;;;;;;1.20;0.95;;;20.60;53.00;;;;;;5080996;28;20552;-43
2021/05/05 06:24:57;;;;;;;2.30;1.00;;;20.60;52.00;;;;;;5085128;28;20048;-43
2021/05/05 06:27:23;;;;;;;0.90;0.77;;;20.50;52.10;;;;;;5089888;28;20043;-43
2021/05/05 06:29:48;;;;;;;1.80;1.08;;;20.60;52.20;;;;;;5089461;28;20497;-43
2021/05/05 06:32:15;;;;;;;1.13;1.00;;;20.60;52.20;;;;;;5090765;28;20036;-42
2021/05/05 06:34:40;;;;;;;1.00;0.85;;;20.70;51.30;;;;;;5086400;28;20043;-44
2021/05/05 06:37:06;;;;;;;1.73;0.80;;;20.60;51.30;;;;;;5090777;28;20047;-42
2021/05/05 06:39:32;;;;;;;2.00;1.10;;;20.60;51.60;;;;;;5071541;28;20044;-43
2021/05/05 06:41:58;;;;;;;1.13;1.00;;;20.60;51.30;;;;;;5069671;28;20515;-41
2021/05/05 06:44:23;;;;;;;1.75;1.10;;;20.60;52.20;;;;;;5078406;28;20062;-41
2021/05/05 06:46:54;;;;;;;2.25;0.93;;;20.50;51.60;;;;;;5065804;28;20072;-41
2021/05/05 06:49:20;;;;;;;1.25;1.00;;;20.50;51.60;;;;;;5059517;28;20097;-43
2021/05/05 06:51:45;;;;;;;1.92;0.90;;;20.50;51.40;;;;;;5084317;28;20044;-41
2021/05/05 06:54:11;;;;;;;1.90;1.08;;;20.60;51.30;;;;;;5069528;28;20048;-41
2021/05/05 06:56:36;;;;;;;0.90;0.90;;;20.70;51.00;;;;;;5077219;28;20032;-40
2021/05/05 06:59:02;;;;;;;1.88;1.00;;;20.70;50.90;;;;;;5087822;28;20066;-42
2021/05/05 07:01:28;;;;;;;2.25;0.98;;;20.70;50.10;;;;;;5083097;28;20586;-41
2021/05/05 07:03:54;;;;;;;1.73;1.00;;;20.70;51.00;;;;;;5076199;28;20148;-44
2021/05/05 07:06:19;;;;;;;1.08;0.80;;;20.70;51.10;;;;;;5075282;28;20135;-39
2021/05/05 07:08:45;;;;;;;1.50;0.80;;;20.80;50.50;;;;;;5071436;28;20512;-40
2021/05/05 07:11:10;;;;;;;2.20;1.00;;;20.70;51.90;;;;;;5081890;28;20063;-40
2021/05/05 07:13:36;;;;;;;1.08;0.85;;;20.60;51.20;;;;;;5108014;28;20035;-40
2021/05/05 07:16:01;;;;;;;0.93;0.80;;;20.50;50.90;;;;;;5107135;28;20040;-41
2021/05/05 07:18:27;;;;;;;2.28;1.10;;;20.40;52.20;;;;;;5106969;28;20459;-41
2021/05/05 07:20:53;;;;;;;1.92;1.05;;;20.50;52.00;;;;;;5103611;28;20502;-39
2021/05/05 07:23:19;;;;;;;1.48;0.70;;;20.60;51.50;;;;;;5109478;28;20425;-41
2021/05/05 07:25:44;;;;;;;1.73;1.10;;;20.70;50.40;;;;;;5109941;28;20046;-41
2021/05/05 07:28:10;;;;;;;1.42;0.90;;;20.80;50.30;;;;;;5111456;28;20097;-39
2021/05/05 07:30:36;;;;;;;0.98;0.77;;;20.90;49.30;;;;;;5110253;28;20130;-41
2021/05/05 07:33:02;;;;;;;1.10;1.00;;;21.00;50.00;;;;;;5108465;28;20051;-41
2021/05/05 07:35:29;;;;;;;0.98;0.80;;;21.10;49.40;;;;;;5109613;28;20042;-41
2021/05/05 07:48:10;;;;;;;1.63;0.88;;;21.10;49.50;;;;;;5108320;28;20099;-38
2021/05/05 07:50:35;;;;;;;4.00;1.20;;;21.10;49.60;;;;;;5108491;28;20039;-40
2021/05/05 07:53:01;;;;;;;7.95;1.33;;;21.10;51.30;;;;;;5092660;28;20059;-40
2021/05/05 07:55:27;;;;;;;8.32;1.67;;;20.90;51.50;;;;;;5111405;28;20051;-39
2021/05/05 07:57:53;;;;;;;6.15;1.02;;;20.80;51.50;;;;;;5107887;28;20043;-41
2021/05/05 08:00:19;;;;;;;4.45;1.02;;;20.70;52.00;;;;;;5097890;28;20483;-41
2021/05/05 08:02:44;;;;;;;5.10;1.58;;;20.60;52.30;;;;;;5097057;28;20035;-39
2021/05/05 08:05:10;;;;;;;2.63;1.30;;;20.50;52.30;;;;;;5109914;28;20039;-45
2021/05/05 08:07:36;;;;;;;4.03;1.30;;;20.40;52.40;;;;;;5110862;28;20074;-40
2021/05/05 08:10:01;;;;;;;3.70;1.00;;;20.40;51.60;;;;;;5108371;28;20517;-41
2021/05/05 08:12:28;;;;;;;1.50;1.13;;;20.50;52.00;;;;;;5108860;28;20039;-41
2021/05/05 08:14:53;;;;;;;2.50;0.75;;;20.50;52.00;;;;;;5089547;28;20039;-41
2021/05/05 08:17:19;;;;;;;8.88;1.13;;;20.50;52.00;;;;;;5108684;28;20039;-43
2021/05/05 08:19:44;;;;;;;3.83;0.90;;;20.50;51.90;;;;;;5108470;28;20087;-36
2021/05/05 08:22:10;;;;;;;1.33;1.00;;;20.60;52.00;;;;;;5074528;28;20119;-46
2021/05/05 08:24:37;;;;;;;1.23;0.98;;;20.50;51.70;;;;;;5108841;28;20516;-43
2021/05/05 08:27:02;;;;;;;1.98;0.95;;;20.60;51.30;;;;;;5107879;28;20043;-43
2021/05/05 08:29:28;;;;;;;1.38;0.93;;;20.60;50.50;;;;;;5106781;28;20044;-44
2021/05/05 08:31:58;;;;;;;4.10;1.00;;;20.60;50.90;;;;;;5108582;28;20516;-45
2021/05/05 08:34:25;;;;;;;1.83;0.90;;;20.70;50.90;;;;;;5109562;28;20062;-43
2021/05/05 08:36:52;;;;;;;1.50;1.10;;;20.80;50.70;;;;;;5108079;28;20043;-43
2021/05/05 08:39:17;;;;;;;1.33;1.00;;;20.80;50.40;;;;;;5105144;28;20051;-41
2021/05/05 08:41:43;;;;;;;0.93;0.80;;;20.80;49.60;;;;;;5108456;28;20599;-43
2021/05/05 08:44:10;;;;;;;4.68;1.30;;;20.90;49.70;;;;;;5076293;28;20074;-43
2021/05/05 08:46:38;;;;;;;1.52;0.98;;;21.00;50.20;;;;;;5110371;28;20040;-43
2021/05/05 08:49:03;;;;;;;1.58;0.98;;;21.10;50.40;;;;;;5090228;28;20047;-39
2021/05/05 08:51:29;;;;;;;1.55;0.90;;;21.20;50.20;;;;;;5087571;28;20040;-40
2021/05/05 08:53:54;;;;;;;2.08;1.05;;;21.20;50.20;;;;;;5103349;28;20047;-39
2021/05/05 08:56:20;;;;;;;2.08;0.90;;;21.40;49.50;;;;;;5108492;28;20043;-39
2021/05/05 08:58:46;;;;;;;1.50;1.02;;;21.50;49.60;;;;;;5100629;28;20383;-33
2021/05/05 09:01:11;;;;;;;2.25;1.20;;;21.50;49.90;;;;;;5109353;28;20036;-40
2021/05/05 09:03:40;;;;;;;2.38;0.93;;;21.50;50.20;;;;;;5109241;28;20052;-41
2021/05/05 09:06:05;;;;;;;1.95;0.98;;;21.60;50.10;;;;;;5111945;28;20036;-40
2021/05/05 09:08:31;;;;;;;1.33;0.90;;;21.60;50.30;;;;;;5106007;28;20043;-40
2021/05/05 09:11:01;;;;;;;3.70;1.30;;;21.60;50.80;;;;;;5093474;28;20066;-41
2021/05/05 09:14:02;;;;;;;2.10;1.10;;;21.60;51.30;;;;;;5096511;28;20074;-41
2021/05/05 09:16:30;;;;;;;3.05;1.30;;;21.60;51.30;;;;;;4990044;28;20062;-41
2021/05/05 09:19:03;;;;;;;2.20;0.88;;;21.70;51.20;;;;;;4986884;28;20045;-41
2021/05/05 09:21:44;;;;;;;6.55;1.73;;;21.70;51.30;;;;;;4989246;28;20038;-40
2021/05/05 09:24:30;;;;;;;4.07;1.25;;;21.80;51.40;;;;;;4985707;28;20055;-40
2021/05/05 09:26:57;;;;;;;2.47;1.00;;;21.80;52.20;;;;;;4988916;28;20042;-40
2021/05/05 09:29:36;;;;;;;4.40;1.20;;;21.80;51.40;;;;;;4989504;28;20042;-40
2021/05/05 09:32:02;;;;;;;4.15;1.50;;;21.70;51.40;;;;;;4972246;28;20106;-42
2021/05/05 09:34:27;;;;;;;1.80;1.40;;;21.70;51.60;;;;;;4998619;28;20039;-42
2021/05/05 09:37:07;;;;;;;2.28;1.10;;;21.70;51.70;;;;;;4985332;28;20061;-42
2021/05/05 09:39:34;;;;;;;2.55;1.40;;;21.70;51.80;;;;;;4979064;28;20607;-42
2021/05/05 09:42:00;;;;;;;2.38;1.20;;;21.60;51.90;;;;;;4984138;28;20125;-40
2021/05/05 09:44:26;;;;;;;2.15;0.90;;;21.50;52.20;;;;;;4987399;28;20141;-42
2021/05/05 09:46:57;;;;;;;1.13;1.02;;;21.60;52.00;;;;;;4989581;28;20050;-42
2021/05/05 09:49:33;;;;;;;2.17;1.13;;;21.50;52.30;;;;;;4986605;28;20553;-35
2021/05/05 09:52:04;;;;;;;1.70;1.08;;;21.50;52.50;;;;;;5110821;28;20578;-42
2021/05/05 09:54:51;;;;;;;2.28;0.90;;;21.50;52.20;;;;;;5112193;28;20055;-42
2021/05/05 09:57:22;;;;;;;1.15;0.90;;;21.50;52.00;;;;;;5111526;28;20044;-41
2021/05/05 09:59:57;;;;;;;4.45;1.30;;;21.60;51.70;;;;;;5093502;28;20046;-43
2021/05/05 10:02:24;;;;;;;3.42;1.10;;;21.70;51.80;;;;;;5110780;28;20144;-40
2021/05/05 10:05:01;;;;;;;1.50;1.10;;;21.60;51.90;;;;;;5110861;28;20047;-39
2021/05/05 10:07:27;;;;;;;1.27;0.80;;;21.60;52.10;;;;;;5112094;28;20048;-42
2021/05/05 10:09:53;;;;;;;1.90;1.00;;;21.50;52.20;;;;;;5093172;28;20531;-41
2021/05/05 10:12:20;;;;;;;2.40;1.10;;;21.40;52.20;;;;;;5111271;28;20052;-41
2021/05/05 10:14:50;;;;;;;1.38;0.82;;;21.60;51.80;;;;;;5110071;28;20520;-42
2021/05/05 10:17:16;;;;;;;1.50;0.80;;;21.70;51.60;;;;;;5110706;28;20044;-41
2021/05/05 10:19:43;;;;;;;1.80;0.82;;;21.60;51.40;;;;;;5112767;28;20532;-43
2021/05/05 10:22:10;;;;;;;1.88;0.90;;;21.70;51.20;;;;;;5092562;28;20043;-41
2021/05/05 10:24:39;;;;;;;1.05;0.90;;;21.60;51.60;;;;;;5082562;28;20482;-41
2021/05/05 10:27:05;;;;;;;5.13;1.15;;;21.50;51.90;;;;;;5101030;28;20036;-44
2021/05/05 10:29:34;;;;;;;1.58;0.75;;;21.50;51.30;;;;;;4727472;28;10000005;-50
2021/05/05 10:32:04;;;;;;;1.67;0.93;;;21.60;50.90;;;;;;5090132;28;20056;-44
2021/05/05 10:34:31;;;;;;;3.35;1.38;;;21.70;50.70;;;;;;5083035;28;20094;-46
2021/05/05 10:37:00;;;;;;;1.08;0.80;;;21.80;50.20;;;;;;5076433;28;20055;-42
2021/05/05 10:39:38;;;;;;;1.20;0.93;;;21.90;49.40;;;;;;5099703;28;20130;-43
2021/05/05 10:42:11;;;;;;;2.45;1.20;;;21.90;49.10;;;;;;5102671;28;20516;-42
2021/05/05 10:44:37;;;;;;;2.42;1.02;;;22.00;50.10;;;;;;5104876;28;20493;-45
2021/05/05 10:47:19;;;;;;;2.60;0.80;;;22.00;50.10;;;;;;5092486;28;20653;-41
2021/05/05 10:50:07;;;;;;;1.00;0.77;;;22.00;49.20;;;;;;5092278;28;20048;-41
2021/05/05 10:52:42;;;;;;;1.00;0.80;;;21.90;49.80;;;;;;5095936;28;20502;-42
2021/05/05 10:55:17;;;;;;;1.83;1.10;;;22.00;49.70;;;;;;5090508;28;20314;-41
2021/05/05 10:58:02;;;;;;;2.08;1.15;;;22.00;49.50;;;;;;5092285;28;20600;-38
2021/05/05 11:00:42;;;;;;;2.35;0.90;;;22.00;49.50;;;;;;5078724;28;20048;-42
2021/05/05 11:03:08;;;;;;;2.17;1.00;;;22.10;49.70;;;;;;5091687;28;20096;-41
2021/05/05 11:05:35;;;;;;;1.50;0.90;;;22.10;49.90;;;;;;5099336;28;20093;-42
2021/05/05 11:08:31;;;;;;;1.40;0.88;;;22.10;49.90;;;;;;5077354;28;20043;-41
2021/05/05 11:10:57;;;;;;;1.98;0.98;;;22.00;50.20;;;;;;5075788;28;20514;-43
2021/05/05 11:13:23;;;;;;;2.00;1.10;;;21.90;51.20;;;;;;5101907;28;20047;-43
2021/05/05 11:15:56;;;;;;;1.15;0.68;;;21.90;50.50;;;;;;5098526;28;20039;-45
2021/05/05 11:18:38;;;;;;;4.38;0.95;;;21.90;51.10;;;;;;5096044;28;20043;-42
2021/05/05 11:21:09;;;;;;;1.63;1.10;;;21.70;51.30;;;;;;5095128;28;20123;-41
2021/05/05 11:23:34;;;;;;;2.05;1.05;;;21.70;51.10;;;;;;5097682;28;20038;-40
2021/05/05 11:26:19;;;;;;;1.77;0.70;;;21.80;50.80;;;;;;5096465;28;20429;-43
2021/05/05 11:29:06;;;;;;;3.15;1.15;;;21.90;50.90;;;;;;5090519;28;20130;-47
2021/05/05 11:31:47;;;;;;;1.05;0.95;;;22.00;50.70;;;;;;5090472;28;20092;-42
2021/05/05 11:34:34;;;;;;;1.85;0.90;;;22.00;50.50;;;;;;5092338;28;20075;-41
2021/05/05 11:37:00;;;;;;;1.00;0.80;;;22.10;50.60;;;;;;5007036;28;20256;-45
2021/05/05 11:39:30;;;;;;;1.02;0.70;;;22.00;50.40;;;;;;5008223;28;20125;-42
2021/05/05 11:42:00;;;;;;;1.10;0.80;;;22.10;50.60;;;;;;5008042;28;20061;-41
2021/05/05 11:44:38;;;;;;;1.35;0.98;;;22.10;50.80;;;;;;5008451;28;20054;-41
2021/05/05 11:47:09;;;;;;;1.75;0.77;;;22.10;50.40;;;;;;5005073;28;20050;-41
2021/05/05 11:49:41;;;;;;;0.73;0.70;;;22.00;50.70;;;;;;5014555;28;20045;-44
2021/05/05 11:52:29;;;;;;;0.90;0.63;;;21.90;51.10;;;;;;5007884;28;20045;-44
2021/05/05 11:55:16;;;;;;;1.83;0.70;;;21.90;51.50;;;;;;5005874;28;20053;-45
2021/05/05 11:57:52;;;;;;;0.82;0.68;;;21.90;50.90;;;;;;5007288;28;20132;-45
2021/05/05 12:00:33;;;;;;;1.27;0.60;;;22.00;50.80;;;;;;5007370;28;20088;-43
2021/05/05 12:02:59;;;;;;;1.20;0.68;;;22.00;51.60;;;;;;5010192;28;20049;-43
2021/05/05 12:05:28;;;;;;;0.93;0.70;;;22.00;50.30;;;;;;5021780;28;20508;-44
2021/05/05 12:08:15;;;;;;;0.65;0.55;;;22.10;50.40;;;;;;5024424;28;20088;-44
2021/05/05 12:10:48;;;;;;;1.25;0.68;;;22.00;50.20;;;;;;5019805;28;20072;-45
2021/05/05 12:13:15;;;;;;;1.35;0.80;;;22.10;50.20;;;;;;4990333;28;20045;-44
2021/05/05 12:15:54;;;;;;;1.17;0.70;;;22.10;50.00;;;;;;5105438;28;20131;-46
2021/05/05 12:18:23;;;;;;;1.55;0.60;;;22.00;50.00;;;;;;5107826;28;20052;-44
2021/05/05 12:20:49;;;;;;;0.55;0.47;;;22.00;50.40;;;;;;5108247;28;20638;-44
2021/05/05 12:23:14;;;;;;;1.02;0.52;;;22.00;49.60;;;;;;5088238;28;20156;-45
2021/05/05 12:25:40;;;;;;;1.33;0.70;;;21.90;50.10;;;;;;5110164;28;20509;-43
2021/05/05 12:28:10;;;;;;;1.67;0.70;;;21.90;49.80;;;;;;5106650;28;20505;-44
2021/05/05 12:30:38;;;;;;;2.00;0.63;;;22.00;49.30;;;;;;5108527;28;20043;-45
2021/05/05 12:33:04;;;;;;;0.82;0.68;;;22.10;49.30;;;;;;5106667;28;20042;-45
2021/05/05 12:35:30;;;;;;;2.20;0.73;;;22.10;49.40;;;;;;5107125;28;20114;-45
2021/05/05 12:37:56;;;;;;;2.53;0.80;;;22.00;49.20;;;;;;5103616;28;20032;-45
2021/05/05 12:40:23;;;;;;;2.25;0.73;;;22.10;49.70;;;;;;5105213;28;20047;-45
2021/05/05 12:42:48;;;;;;;1.50;0.77;;;22.10;50.00;;;;;;5105917;28;20048;-47
2021/05/05 12:45:15;;;;;;;0.70;0.70;;;22.10;50.30;;;;;;5106924;28;20513;-40
2021/05/05 12:47:41;;;;;;;1.02;0.70;;;22.10;49.50;;;;;;5104010;28;20032;-44
2021/05/05 12:50:08;;;;;;;1.27;0.52;;;22.20;49.50;;;;;;5088878;28;20039;-43
2021/05/05 12:52:37;;;;;;;1.08;0.60;;;22.10;49.40;;;;;;5109916;28;20093;-42
2021/05/05 12:55:42;;;;;;;1.45;0.50;;;22.20;49.10;;;;;;5106771;28;20045;-42
2021/05/05 12:58:14;;;;;;;0.80;0.55;;;22.20;49.30;;;;;;5014432;28;20455;-43